• Join FlightAware (Why Join?)
  • Login
  • US Flag 
12:46PM EDT


 

Airport Tracker/Info


-or-


 

Live Flight TrackerFlight Track Log ✈ USC110 ✈ 02-Oct-2013 ✈ KCLT - KLCK

Flight Track Log - Related Links

Times and Time Zones

All times are in EDT time to prevent confusion due to time zone crossing. See the USC110 flight status page for this flight to view local times or setup timezone preferences in your user account.

Time Position Orientation Groundspeed Altitude Reporting Facility
EDT Latitude Longitude Course Direction KTS MPH feet Rate Location/Type
07:26AM 35.2206 -80.9525 239° Southwest 93 107 1,800  Level Atlanta Center
07:27AM 35.2194 -80.9906 268° West 109 125 3,000 1,200 Climbing Atlanta Center
07:29AM 35.2181 -81.0286 267° West 107 123 4,400 1,080 Climbing Atlanta Center
07:29AM 35.2456 -81.0431 337° Northwest 135 155 5,300 1,200 Climbing Atlanta Center
07:30AM 35.2753 -81.0547 342° North 118 136 6,800 1,260 Climbing Atlanta Center
07:31AM 35.3047 -81.0664 342° North 104 120 7,900 540 Climbing Atlanta Center
07:33AM 35.3447 -81.0803 344° North 152 175 7,900  Level Atlanta Center
07:34AM 35.3867 -81.0964 343° North 160 184 8,000  Climbing Atlanta Center
07:34AM 35.4161 -81.1081 342° North 158 182 7,900  Descending Atlanta Center
07:35AM 35.4564 -81.1244 342° North 167 192 8,000  Climbing Atlanta Center
07:36AM 35.4983 -81.1408 342° North 167 192 8,000  Level Atlanta Center
07:37AM 35.5406 -81.1572 342° North 167 192 8,000  Level Atlanta Center
07:38AM 35.5847 -81.1736 343° North 167 192 8,000  Level Atlanta Center
07:39AM 35.6289 -81.1900 343° North 167 192 8,000  Level Atlanta Center
07:40AM 35.6708 -81.2064 342° North 167 192 8,000  Level Atlanta Center
07:41AM 35.7131 -81.2253 340° North 167 192 8,000  Level Atlanta Center
07:42AM 35.7572 -81.2417 343° North 167 192 8,000  Level Atlanta Center
07:43AM 35.7994 -81.2583 342° North 167 192 8,000  Level Atlanta Center
07:44AM 35.8414 -81.2747 342° North 167 192 8,000  Level Atlanta Center
07:45AM 35.8836 -81.2911 343° North 160 184 8,000  Level Atlanta Center
07:46AM 35.9194 -81.3056 342° North 155 178 8,000  Level Atlanta Center
07:47AM 35.9636 -81.3219 343° North 155 178 8,000  Level Atlanta Center
07:48AM 36.0056 -81.3383 342° North 149 171 8,000  Level Atlanta Center
07:49AM 36.0478 -81.3550 342° North 155 178 8,000  Level Atlanta Center
07:50AM 36.0897 -81.3717 342° North 155 178 8,000  Level Atlanta Center
07:51AM 36.1319 -81.3883 342° North 155 178 8,000  Level Atlanta Center
07:52AM 36.1739 -81.4075 340° North 150 173 8,000  Level Atlanta Center
07:53AM 36.2203 -81.4239 344° North 150 173 8,000  Level Atlanta Center
07:54AM 36.2622 -81.4406 342° North 150 173 8,000  Level Atlanta Center
07:55AM 36.3064 -81.4572 343° North 150 173 8,000  Level Atlanta Center
07:56AM 36.3486 -81.4739 342° North 150 173 8,000  Level Atlanta Center
07:57AM 36.3925 -81.4906 343° North 150 173 8,000 -60 Level Atlanta Center
07:58AM 36.4325 -81.5072 341° North 150 173 7,900  Descending Atlanta Center
07:59AM 36.4767 -81.5267 341° North 150 173 8,000  Climbing Atlanta Center
08:00AM 36.5167 -81.5408 344° North 150 173 8,000  Level Atlanta Center
08:01AM 36.5608 -81.5575 343° North 150 173 8,000  Level Atlanta Center
08:02AM 36.6008 -81.5794 336° Northwest 155 178 8,000  Level Atlanta Center
08:03AM 36.6450 -81.5964 343° North 155 178 8,000  Level Atlanta Center
08:04AM 36.6869 -81.6106 345° North 155 178 8,000  Level Atlanta Center
08:05AM 36.7292 -81.6300 340° North 155 178 8,000  Level Atlanta Center
08:06AM 36.7733 -81.6467 343° North 155 178 8,000  Level Atlanta Center
08:07AM 36.8175 -81.6661 341° North 160 184 8,000  Level Atlanta Center
08:08AM 36.8614 -81.6856 340° North 166 191 8,000  Level Atlanta Center
08:09AM 36.8897 -81.6925 349° North 169 194 8,000  Level Indianapolis Center
08:10AM 36.9339 -81.7103 342° North 168 193 8,000  Level Indianapolis Center
08:11AM 36.9792 -81.7278 343° North 169 194 8,000  Level Indianapolis Center
08:12AM 37.0236 -81.7467 341° North 170 196 8,000  Level Indianapolis Center
08:13AM 37.0683 -81.7644 342° North 168 193 8,000  Level Indianapolis Center
08:14AM 37.1214 -81.7861 342° North 170 196 8,000  Level Indianapolis Center
08:15AM 37.1650 -81.8036 342° North 166 191 8,000  Level Indianapolis Center
08:16AM 37.2089 -81.8231 341° North 167 192 8,000  Level Indianapolis Center
08:17AM 37.2514 -81.8397 343° North 161 185 8,000  Level Indianapolis Center
08:18AM 37.2964 -81.8581 342° North 167 192 8,000  Level Indianapolis Center
08:19AM 37.3408 -81.8764 342° North 168 193 8,000  Level Indianapolis Center
08:20AM 37.3919 -81.8961 343° North 166 191 8,000  Level Indianapolis Center
08:21AM 37.4361 -81.9156 341° North 168 193 8,000  Level Indianapolis Center
08:22AM 37.4803 -81.9342 342° North 168 193 8,000  Level Indianapolis Center
08:23AM 37.5239 -81.9525 342° North 166 191 8,000  Level Indianapolis Center
08:24AM 37.5689 -81.9708 342° North 169 194 8,000  Level Indianapolis Center
08:25AM 37.6122 -81.9881 343° North 165 190 8,000  Level Indianapolis Center
08:26AM 37.6642 -82.0100 342° North 167 192 8,000  Level Indianapolis Center
08:27AM 37.7092 -82.0283 342° North 169 194 8,000  Level Indianapolis Center
08:28AM 37.7542 -82.0472 342° North 170 196 8,000  Level Indianapolis Center
08:29AM 37.7986 -82.0661 341° North 169 194 8,000 -60 Level Indianapolis Center
08:31AM 37.8436 -82.0844 342° North 170 196 7,900 -60 Descending Indianapolis Center
08:32AM 37.8869 -82.1019 342° North 167 192 7,900  Level Indianapolis Center
08:33AM 37.9314 -82.1197 342° North 168 193 7,900  Level Indianapolis Center
08:34AM 37.9858 -82.1431 341° North 172 198 7,900  Level Indianapolis Center
08:35AM 38.0286 -82.1611 342° North 167 192 7,900  Level Indianapolis Center
08:36AM 38.0725 -82.1797 342° North 165 190 7,900  Level Indianapolis Center
08:37AM 38.1183 -82.1986 342° North 168 193 7,900  Level Indianapolis Center
08:38AM 38.1628 -82.2164 343° North 168 193 7,900  Level Indianapolis Center
08:39AM 38.2061 -82.2356 341° North 166 191 7,900 -60 Level Indianapolis Center
08:40AM 38.2506 -82.2525 343° North 166 191 7,800 -480 Descending Indianapolis Center
08:41AM 38.3072 -82.2772 341° North 175 201 7,000 -480 Descending Indianapolis Center
08:42AM 38.3528 -82.2958 342° North 174 200 6,900 -60 Descending Indianapolis Center
08:43AM 38.3953 -82.3144 341° North 166 191 6,900  Level Indianapolis Center
08:44AM 38.4378 -82.3325 342° North 162 186 6,900  Level Indianapolis Center
08:45AM 38.4808 -82.3500 342° North 162 186 6,900  Level Indianapolis Center
08:46AM 38.5242 -82.3692 341° North 162 186 6,900  Level Indianapolis Center
08:47AM 38.5669 -82.3881 341° North 162 186 6,900  Level Indianapolis Center
08:48AM 38.6111 -82.4056 343° North 165 190 6,900  Level Indianapolis Center
08:49AM 38.6611 -82.4283 340° North 160 184 6,900  Level Indianapolis Center
08:50AM 38.7044 -82.4458 343° North 161 185 6,900  Level Indianapolis Center
08:51AM 38.7481 -82.4650 341° North 164 189 7,000  Climbing Indianapolis Center
08:52AM 38.7936 -82.4839 342° North 168 193 7,000  Level Indianapolis Center
08:53AM 38.8386 -82.5028 342° North 169 194 7,000 -60 Level Indianapolis Center
08:54AM 38.8842 -82.5236 340° North 171 197 6,900 -60 Descending Indianapolis Center
08:55AM 38.9289 -82.5422 342° North 170 196 6,900  Level Indianapolis Center
08:56AM 38.9728 -82.5614 341° North 167 192 6,900  Level Indianapolis Center
08:57AM 39.0258 -82.5842 342° North 167 192 6,900  Level Indianapolis Center
08:58AM 39.0703 -82.6042 341° North 169 194 7,000  Climbing Indianapolis Center
08:59AM 39.1142 -82.6228 342° North 167 192 7,000  Level Indianapolis Center
09:00AM 39.1572 -82.6403 343° North 164 189 7,000  Level Indianapolis Center
09:01AM 39.2011 -82.6597 341° North 165 190 7,000  Level Indianapolis Center
09:02AM 39.2461 -82.6794 341° North 167 192 7,000  Level Indianapolis Center
09:04AM 39.3000 -82.7031 341° North 169 194 7,000  Level Indianapolis Center
09:04AM 39.3289 -82.7194 336° Northwest 169 194 7,000  Level Indianapolis Center
09:05AM 39.3428 -82.7222 351° North 166 191 7,000  Level Indianapolis Center
09:05AM 39.3733 -82.7400 336° Northwest 168 193 7,000  Level Indianapolis Center
09:06AM 39.3875 -82.7425 352° North 168 193 7,000  Level Indianapolis Center
09:06AM 39.4136 -82.7569 337° Northwest 168 193 7,000  Level Indianapolis Center
09:07AM 39.4319 -82.7608 351° North 167 192 7,000  Level Indianapolis Center
09:07AM 39.4642 -82.7786 337° Northwest 167 192 7,000 -120 Level Indianapolis Center
09:08AM 39.4764 -82.7811 351° North 168 193 6,900 -480 Descending Indianapolis Center
09:08AM 39.5067 -82.7961 339° North 170 196 6,600 -780 Descending Indianapolis Center
09:09AM 39.5222 -82.7994 351° North 169 194 6,100 -1,680 Descending Indianapolis Center
09:09AM 39.5531 -82.8169 336° Northwest 178 205 4,900 -1,800 Descending Indianapolis Center
09:10AM 39.5692 -82.8194 353° North 174 200 4,300 -1,800 Descending Indianapolis Center
09:10AM 39.5975 -82.8347 337° Northwest 171 197 3,100 -780 Descending Indianapolis Center
09:11AM 39.6222 -82.8450 342° North 174 200 3,500 -120 Climbing Indianapolis Center
09:11AM 39.6458 -82.8561 340° North 156 180 3,000 -480 Descending Indianapolis Center
09:12AM 39.6861 -82.8758 339° North 179 206 2,800 -300 Descending Indianapolis Center
09:13AM 39.7286 -82.8936 342° North 174 200 2,500 -480 Descending Indianapolis Center
09:15AM 39.7797 -82.9065 339° North  Level FlightAware Approximate
09:15AM 39.8164 -82.8967 339° North 162 186 1,500  Level Indianapolis Center
09:17AM 39.8000 -82.9167 339° North  Level FlightAware Approximate
09:24AM 39.8138 -82.9278 339° North  Level Estimated